sensor_id;sensor_type;location;lat;lon;timestamp;P1;durP1;ratioP1;P2;durP2;ratioP2
25715;SDS011;13573;50.936;4.328;2022-07-06T00:00:27;6.80;;;4.63;;
25715;SDS011;13573;50.936;4.328;2022-07-06T00:02:54;10.13;;;4.70;;
25715;SDS011;13573;50.936;4.328;2022-07-06T00:05:20;7.20;;;4.73;;
25715;SDS011;13573;50.936;4.328;2022-07-06T00:07:47;9.90;;;4.90;;
25715;SDS011;13573;50.936;4.328;2022-07-06T00:10:13;6.87;;;4.37;;
25715;SDS011;13573;50.936;4.328;2022-07-06T00:12:40;8.60;;;5.23;;
25715;SDS011;13573;50.936;4.328;2022-07-06T00:15:07;10.00;;;4.60;;
25715;SDS011;13573;50.936;4.328;2022-07-06T00:17:34;13.47;;;4.97;;
25715;SDS011;13573;50.936;4.328;2022-07-06T00:20:00;10.63;;;5.60;;
25715;SDS011;13573;50.936;4.328;2022-07-06T00:22:27;8.60;;;4.60;;
25715;SDS011;13573;50.936;4.328;2022-07-06T00:24:54;10.10;;;5.07;;
25715;SDS011;13573;50.936;4.328;2022-07-06T00:27:20;8.27;;;4.97;;
25715;SDS011;13573;50.936;4.328;2022-07-06T00:29:47;8.10;;;5.50;;
25715;SDS011;13573;50.936;4.328;2022-07-06T00:32:13;8.23;;;5.33;;
25715;SDS011;13573;50.936;4.328;2022-07-06T00:34:40;9.13;;;4.70;;
25715;SDS011;13573;50.936;4.328;2022-07-06T00:37:07;12.13;;;5.73;;
25715;SDS011;13573;50.936;4.328;2022-07-06T00:39:34;9.40;;;5.07;;
25715;SDS011;13573;50.936;4.328;2022-07-06T00:42:01;6.97;;;4.33;;
25715;SDS011;13573;50.936;4.328;2022-07-06T00:44:28;6.53;;;4.27;;
25715;SDS011;13573;50.936;4.328;2022-07-06T00:46:55;9.10;;;5.20;;
25715;SDS011;13573;50.936;4.328;2022-07-06T00:49:21;10.37;;;4.90;;
25715;SDS011;13573;50.936;4.328;2022-07-06T00:51:53;6.43;;;4.33;;
25715;SDS011;13573;50.936;4.328;2022-07-06T00:54:21;8.70;;;5.17;;
25715;SDS011;13573;50.936;4.328;2022-07-06T00:56:48;7.07;;;5.13;;
25715;SDS011;13573;50.936;4.328;2022-07-06T00:59:14;12.93;;;5.83;;
25715;SDS011;13573;50.936;4.328;2022-07-06T01:01:41;9.93;;;5.43;;
25715;SDS011;13573;50.936;4.328;2022-07-06T01:04:07;11.80;;;6.17;;
25715;SDS011;13573;50.936;4.328;2022-07-06T01:06:34;6.80;;;5.83;;
25715;SDS011;13573;50.936;4.328;2022-07-06T01:09:01;12.93;;;6.07;;
25715;SDS011;13573;50.936;4.328;2022-07-06T01:11:29;12.63;;;6.60;;
25715;SDS011;13573;50.936;4.328;2022-07-06T01:13:56;9.77;;;6.53;;
25715;SDS011;13573;50.936;4.328;2022-07-06T01:16:26;12.93;;;6.83;;
25715;SDS011;13573;50.936;4.328;2022-07-06T01:18:52;11.23;;;6.57;;
25715;SDS011;13573;50.936;4.328;2022-07-06T01:21:19;12.97;;;6.30;;
25715;SDS011;13573;50.936;4.328;2022-07-06T01:23:47;9.83;;;5.90;;
25715;SDS011;13573;50.936;4.328;2022-07-06T01:26:15;11.73;;;5.83;;
25715;SDS011;13573;50.936;4.328;2022-07-06T01:28:45;11.83;;;6.20;;
25715;SDS011;13573;50.936;4.328;2022-07-06T01:31:18;8.70;;;5.63;;
25715;SDS011;13573;50.936;4.328;2022-07-06T01:33:48;13.17;;;5.97;;
25715;SDS011;13573;50.936;4.328;2022-07-06T01:36:15;10.50;;;5.73;;
25715;SDS011;13573;50.936;4.328;2022-07-06T01:38:43;10.13;;;6.10;;
25715;SDS011;13573;50.936;4.328;2022-07-06T01:41:12;7.93;;;5.90;;
25715;SDS011;13573;50.936;4.328;2022-07-06T01:43:39;9.27;;;6.20;;
25715;SDS011;13573;50.936;4.328;2022-07-06T01:46:06;12.00;;;6.70;;
25715;SDS011;13573;50.936;4.328;2022-07-06T01:48:32;12.40;;;6.23;;
25715;SDS011;13573;50.936;4.328;2022-07-06T01:50:59;12.43;;;6.33;;
25715;SDS011;13573;50.936;4.328;2022-07-06T01:53:26;7.70;;;5.63;;
25715;SDS011;13573;50.936;4.328;2022-07-06T01:55:52;7.33;;;5.57;;
25715;SDS011;13573;50.936;4.328;2022-07-06T01:58:19;7.70;;;5.77;;
25715;SDS011;13573;50.936;4.328;2022-07-06T02:00:46;11.93;;;5.53;;
25715;SDS011;13573;50.936;4.328;2022-07-06T02:03:12;10.37;;;5.60;;
25715;SDS011;13573;50.936;4.328;2022-07-06T02:05:39;9.17;;;6.00;;
25715;SDS011;13573;50.936;4.328;2022-07-06T02:08:06;7.07;;;4.80;;
25715;SDS011;13573;50.936;4.328;2022-07-06T02:10:33;10.00;;;4.70;;
25715;SDS011;13573;50.936;4.328;2022-07-06T02:13:00;9.93;;;5.80;;
25715;SDS011;13573;50.936;4.328;2022-07-06T02:15:27;9.40;;;5.50;;
25715;SDS011;13573;50.936;4.328;2022-07-06T02:17:53;8.47;;;4.90;;
25715;SDS011;13573;50.936;4.328;2022-07-06T02:20:20;8.60;;;5.00;;
25715;SDS011;13573;50.936;4.328;2022-07-06T02:22:47;6.97;;;4.97;;
25715;SDS011;13573;50.936;4.328;2022-07-06T02:25:13;10.60;;;4.90;;
25715;SDS011;13573;50.936;4.328;2022-07-06T02:27:40;7.53;;;4.83;;
25715;SDS011;13573;50.936;4.328;2022-07-06T02:30:07;10.57;;;4.80;;
25715;SDS011;13573;50.936;4.328;2022-07-06T02:32:34;8.20;;;4.77;;
25715;SDS011;13573;50.936;4.328;2022-07-06T02:35:00;8.53;;;4.80;;
25715;SDS011;13573;50.936;4.328;2022-07-06T02:37:27;8.37;;;4.90;;
25715;SDS011;13573;50.936;4.328;2022-07-06T02:39:53;8.00;;;4.53;;
25715;SDS011;13573;50.936;4.328;2022-07-06T02:42:20;8.77;;;5.07;;
25715;SDS011;13573;50.936;4.328;2022-07-06T02:44:47;6.13;;;4.57;;
25715;SDS011;13573;50.936;4.328;2022-07-06T02:47:14;7.50;;;5.00;;
25715;SDS011;13573;50.936;4.328;2022-07-06T02:49:40;6.30;;;4.60;;
25715;SDS011;13573;50.936;4.328;2022-07-06T02:52:08;9.83;;;5.03;;
25715;SDS011;13573;50.936;4.328;2022-07-06T02:54:35;10.10;;;4.60;;
25715;SDS011;13573;50.936;4.328;2022-07-06T02:57:02;7.17;;;4.90;;
25715;SDS011;13573;50.936;4.328;2022-07-06T02:59:28;7.93;;;4.63;;
25715;SDS011;13573;50.936;4.328;2022-07-06T03:01:55;9.37;;;5.40;;
25715;SDS011;13573;50.936;4.328;2022-07-06T03:04:22;6.73;;;4.70;;
25715;SDS011;13573;50.936;4.328;2022-07-06T03:06:48;9.83;;;4.90;;
25715;SDS011;13573;50.936;4.328;2022-07-06T03:09:15;10.33;;;5.00;;
25715;SDS011;13573;50.936;4.328;2022-07-06T03:11:41;8.50;;;5.30;;
25715;SDS011;13573;50.936;4.328;2022-07-06T03:14:08;10.90;;;5.13;;
25715;SDS011;13573;50.936;4.328;2022-07-06T03:16:35;8.23;;;5.10;;
25715;SDS011;13573;50.936;4.328;2022-07-06T03:19:01;7.63;;;4.90;;
25715;SDS011;13573;50.936;4.328;2022-07-06T03:21:29;8.57;;;5.20;;
25715;SDS011;13573;50.936;4.328;2022-07-06T03:23:55;7.60;;;5.00;;
25715;SDS011;13573;50.936;4.328;2022-07-06T03:26:22;9.07;;;5.50;;
25715;SDS011;13573;50.936;4.328;2022-07-06T03:28:49;8.10;;;5.53;;
25715;SDS011;13573;50.936;4.328;2022-07-06T03:31:16;7.63;;;5.40;;
25715;SDS011;13573;50.936;4.328;2022-07-06T03:33:42;7.70;;;5.20;;
25715;SDS011;13573;50.936;4.328;2022-07-06T03:36:09;11.50;;;5.40;;
25715;SDS011;13573;50.936;4.328;2022-07-06T03:38:36;6.97;;;5.10;;
25715;SDS011;13573;50.936;4.328;2022-07-06T03:41:03;8.93;;;4.93;;
25715;SDS011;13573;50.936;4.328;2022-07-06T03:43:29;12.30;;;5.53;;
25715;SDS011;13573;50.936;4.328;2022-07-06T03:45:56;8.57;;;5.30;;
25715;SDS011;13573;50.936;4.328;2022-07-06T03:48:23;8.10;;;5.30;;
25715;SDS011;13573;50.936;4.328;2022-07-06T03:50:49;10.20;;;5.87;;
25715;SDS011;13573;50.936;4.328;2022-07-06T03:53:16;10.47;;;5.60;;
25715;SDS011;13573;50.936;4.328;2022-07-06T03:55:43;8.10;;;5.67;;
25715;SDS011;13573;50.936;4.328;2022-07-06T03:58:12;7.83;;;5.43;;
25715;SDS011;13573;50.936;4.328;2022-07-06T04:00:39;8.80;;;5.13;;
25715;SDS011;13573;50.936;4.328;2022-07-06T04:03:05;9.67;;;6.53;;
25715;SDS011;13573;50.936;4.328;2022-07-06T04:05:32;9.10;;;5.53;;
25715;SDS011;13573;50.936;4.328;2022-07-06T04:07:58;8.70;;;5.10;;
25715;SDS011;13573;50.936;4.328;2022-07-06T04:10:25;9.97;;;5.30;;
25715;SDS011;13573;50.936;4.328;2022-07-06T04:12:52;9.17;;;5.17;;
25715;SDS011;13573;50.936;4.328;2022-07-06T04:15:19;8.43;;;4.83;;
25715;SDS011;13573;50.936;4.328;2022-07-06T04:17:45;8.57;;;5.57;;
25715;SDS011;13573;50.936;4.328;2022-07-06T04:20:17;8.00;;;5.07;;
25715;SDS011;13573;50.936;4.328;2022-07-06T04:22:45;6.30;;;4.70;;
25715;SDS011;13573;50.936;4.328;2022-07-06T04:25:12;6.03;;;4.53;;
25715;SDS011;13573;50.936;4.328;2022-07-06T04:27:39;6.60;;;4.80;;
25715;SDS011;13573;50.936;4.328;2022-07-06T04:30:06;8.57;;;4.87;;
25715;SDS011;13573;50.936;4.328;2022-07-06T04:32:34;11.87;;;5.00;;
25715;SDS011;13573;50.936;4.328;2022-07-06T04:35:02;8.23;;;4.70;;
25715;SDS011;13573;50.936;4.328;2022-07-06T04:37:30;7.30;;;4.30;;
25715;SDS011;13573;50.936;4.328;2022-07-06T04:39:57;8.77;;;5.40;;
25715;SDS011;13573;50.936;4.328;2022-07-06T04:42:24;7.40;;;5.30;;
25715;SDS011;13573;50.936;4.328;2022-07-06T04:44:51;13.20;;;6.30;;
25715;SDS011;13573;50.936;4.328;2022-07-06T04:47:17;11.93;;;7.43;;
25715;SDS011;13573;50.936;4.328;2022-07-06T04:49:44;9.43;;;6.37;;
25715;SDS011;13573;50.936;4.328;2022-07-06T04:52:14;10.80;;;5.90;;
25715;SDS011;13573;50.936;4.328;2022-07-06T04:54:47;9.07;;;6.07;;
25715;SDS011;13573;50.936;4.328;2022-07-06T04:57:16;11.10;;;6.47;;
25715;SDS011;13573;50.936;4.328;2022-07-06T04:59:43;14.40;;;7.57;;
25715;SDS011;13573;50.936;4.328;2022-07-06T05:02:09;12.83;;;6.67;;
25715;SDS011;13573;50.936;4.328;2022-07-06T05:04:36;13.47;;;7.17;;
25715;SDS011;13573;50.936;4.328;2022-07-06T05:07:03;10.77;;;6.50;;
25715;SDS011;13573;50.936;4.328;2022-07-06T05:09:30;16.40;;;7.10;;
25715;SDS011;13573;50.936;4.328;2022-07-06T05:11:57;8.37;;;6.50;;
25715;SDS011;13573;50.936;4.328;2022-07-06T05:14:24;14.17;;;7.03;;
25715;SDS011;13573;50.936;4.328;2022-07-06T05:16:54;9.00;;;6.67;;
25715;SDS011;13573;50.936;4.328;2022-07-06T05:19:21;11.00;;;6.57;;
25715;SDS011;13573;50.936;4.328;2022-07-06T05:21:50;11.53;;;7.13;;
25715;SDS011;13573;50.936;4.328;2022-07-06T05:24:18;11.03;;;6.60;;
25715;SDS011;13573;50.936;4.328;2022-07-06T05:26:45;11.43;;;6.37;;
25715;SDS011;13573;50.936;4.328;2022-07-06T05:29:13;8.83;;;5.93;;
25715;SDS011;13573;50.936;4.328;2022-07-06T05:31:40;15.33;;;7.00;;
25715;SDS011;13573;50.936;4.328;2022-07-06T05:34:09;10.00;;;6.77;;
25715;SDS011;13573;50.936;4.328;2022-07-06T05:36:37;11.83;;;6.67;;
25715;SDS011;13573;50.936;4.328;2022-07-06T05:39:03;14.10;;;7.90;;
25715;SDS011;13573;50.936;4.328;2022-07-06T05:41:30;15.83;;;7.83;;
25715;SDS011;13573;50.936;4.328;2022-07-06T05:43:57;16.73;;;8.33;;
25715;SDS011;13573;50.936;4.328;2022-07-06T05:46:23;11.97;;;6.63;;
25715;SDS011;13573;50.936;4.328;2022-07-06T05:48:50;12.47;;;7.53;;
25715;SDS011;13573;50.936;4.328;2022-07-06T05:51:23;12.00;;;7.30;;
25715;SDS011;13573;50.936;4.328;2022-07-06T05:53:49;15.60;;;7.27;;
25715;SDS011;13573;50.936;4.328;2022-07-06T05:56:17;15.67;;;8.20;;
25715;SDS011;13573;50.936;4.328;2022-07-06T05:58:45;12.90;;;7.63;;
25715;SDS011;13573;50.936;4.328;2022-07-06T06:01:11;14.03;;;7.57;;
25715;SDS011;13573;50.936;4.328;2022-07-06T06:03:38;15.47;;;8.30;;
25715;SDS011;13573;50.936;4.328;2022-07-06T06:06:04;13.63;;;7.80;;
25715;SDS011;13573;50.936;4.328;2022-07-06T06:08:31;21.07;;;7.47;;
25715;SDS011;13573;50.936;4.328;2022-07-06T06:10:58;18.73;;;7.67;;
25715;SDS011;13573;50.936;4.328;2022-07-06T06:13:24;11.83;;;7.60;;
25715;SDS011;13573;50.936;4.328;2022-07-06T06:15:51;11.33;;;7.13;;
25715;SDS011;13573;50.936;4.328;2022-07-06T06:18:18;21.13;;;7.73;;
25715;SDS011;13573;50.936;4.328;2022-07-06T06:20:45;16.90;;;7.70;;
25715;SDS011;13573;50.936;4.328;2022-07-06T06:23:12;13.80;;;7.33;;
25715;SDS011;13573;50.936;4.328;2022-07-06T06:25:41;15.13;;;8.00;;
25715;SDS011;13573;50.936;4.328;2022-07-06T06:28:10;18.10;;;7.53;;
25715;SDS011;13573;50.936;4.328;2022-07-06T06:30:37;13.37;;;7.80;;
25715;SDS011;13573;50.936;4.328;2022-07-06T06:33:06;14.07;;;6.20;;
25715;SDS011;13573;50.936;4.328;2022-07-06T06:35:35;13.50;;;4.67;;
25715;SDS011;13573;50.936;4.328;2022-07-06T06:38:02;12.57;;;5.67;;
25715;SDS011;13573;50.936;4.328;2022-07-06T06:40:29;16.23;;;6.10;;
25715;SDS011;13573;50.936;4.328;2022-07-06T06:42:55;9.90;;;5.97;;
25715;SDS011;13573;50.936;4.328;2022-07-06T06:45:22;11.60;;;6.97;;
25715;SDS011;13573;50.936;4.328;2022-07-06T06:47:49;12.27;;;6.20;;
25715;SDS011;13573;50.936;4.328;2022-07-06T06:50:16;10.83;;;6.97;;
25715;SDS011;13573;50.936;4.328;2022-07-06T06:52:43;10.57;;;6.43;;
25715;SDS011;13573;50.936;4.328;2022-07-06T06:55:09;10.73;;;5.60;;
25715;SDS011;13573;50.936;4.328;2022-07-06T06:57:36;9.07;;;4.60;;
25715;SDS011;13573;50.936;4.328;2022-07-06T07:00:04;10.43;;;5.83;;
25715;SDS011;13573;50.936;4.328;2022-07-06T07:02:33;9.70;;;5.60;;
25715;SDS011;13573;50.936;4.328;2022-07-06T07:05:00;9.53;;;5.20;;
25715;SDS011;13573;50.936;4.328;2022-07-06T07:07:27;7.90;;;4.77;;
25715;SDS011;13573;50.936;4.328;2022-07-06T07:09:55;7.20;;;3.50;;
25715;SDS011;13573;50.936;4.328;2022-07-06T07:12:21;6.90;;;3.33;;
25715;SDS011;13573;50.936;4.328;2022-07-06T07:14:48;7.23;;;2.70;;
25715;SDS011;13573;50.936;4.328;2022-07-06T07:17:16;6.67;;;2.80;;
25715;SDS011;13573;50.936;4.328;2022-07-06T07:19:42;5.83;;;3.00;;
25715;SDS011;13573;50.936;4.328;2022-07-06T07:22:09;8.07;;;3.17;;
25715;SDS011;13573;50.936;4.328;2022-07-06T07:24:39;5.77;;;2.90;;
25715;SDS011;13573;50.936;4.328;2022-07-06T07:27:06;5.60;;;2.50;;
25715;SDS011;13573;50.936;4.328;2022-07-06T07:29:34;6.17;;;2.43;;
25715;SDS011;13573;50.936;4.328;2022-07-06T07:32:02;9.33;;;3.97;;
25715;SDS011;13573;50.936;4.328;2022-07-06T07:34:31;5.50;;;2.90;;
25715;SDS011;13573;50.936;4.328;2022-07-06T07:36:58;7.83;;;2.23;;
25715;SDS011;13573;50.936;4.328;2022-07-06T07:39:28;7.37;;;1.70;;
25715;SDS011;13573;50.936;4.328;2022-07-06T07:41:55;3.83;;;2.10;;
25715;SDS011;13573;50.936;4.328;2022-07-06T07:44:24;5.97;;;2.13;;
25715;SDS011;13573;50.936;4.328;2022-07-06T07:46:52;8.27;;;2.20;;
25715;SDS011;13573;50.936;4.328;2022-07-06T07:49:20;5.03;;;1.87;;
25715;SDS011;13573;50.936;4.328;2022-07-06T07:51:48;5.80;;;1.93;;
25715;SDS011;13573;50.936;4.328;2022-07-06T07:54:18;3.23;;;1.70;;
25715;SDS011;13573;50.936;4.328;2022-07-06T07:56:45;7.58;;;1.85;;
25715;SDS011;13573;50.936;4.328;2022-07-06T07:59:12;5.57;;;1.67;;
25715;SDS011;13573;50.936;4.328;2022-07-06T08:01:40;5.63;;;1.60;;
25715;SDS011;13573;50.936;4.328;2022-07-06T08:04:07;7.45;;;1.80;;
25715;SDS011;13573;50.936;4.328;2022-07-06T08:06:33;7.30;;;1.92;;
25715;SDS011;13573;50.936;4.328;2022-07-06T08:09:01;8.48;;;2.33;;
25715;SDS011;13573;50.936;4.328;2022-07-06T08:11:31;6.87;;;2.00;;
25715;SDS011;13573;50.936;4.328;2022-07-06T08:13:58;4.12;;;1.87;;
25715;SDS011;13573;50.936;4.328;2022-07-06T08:16:24;5.20;;;2.50;;
25715;SDS011;13573;50.936;4.328;2022-07-06T08:18:51;4.37;;;1.60;;
25715;SDS011;13573;50.936;4.328;2022-07-06T08:21:18;7.67;;;2.17;;
25715;SDS011;13573;50.936;4.328;2022-07-06T08:23:44;6.45;;;2.00;;
25715;SDS011;13573;50.936;4.328;2022-07-06T08:26:12;5.15;;;2.20;;
25715;SDS011;13573;50.936;4.328;2022-07-06T08:28:40;7.78;;;2.60;;
25715;SDS011;13573;50.936;4.328;2022-07-06T08:31:06;5.70;;;2.27;;
25715;SDS011;13573;50.936;4.328;2022-07-06T08:33:33;4.28;;;2.42;;
25715;SDS011;13573;50.936;4.328;2022-07-06T08:36:02;3.98;;;2.47;;
25715;SDS011;13573;50.936;4.328;2022-07-06T08:38:29;7.85;;;3.20;;
25715;SDS011;13573;50.936;4.328;2022-07-06T08:40:55;5.58;;;3.47;;
25715;SDS011;13573;50.936;4.328;2022-07-06T08:43:22;8.55;;;3.85;;
25715;SDS011;13573;50.936;4.328;2022-07-06T08:45:50;7.95;;;3.92;;
25715;SDS011;13573;50.936;4.328;2022-07-06T08:48:19;7.67;;;3.90;;
25715;SDS011;13573;50.936;4.328;2022-07-06T08:50:49;9.50;;;4.17;;
25715;SDS011;13573;50.936;4.328;2022-07-06T08:53:16;8.45;;;3.75;;
25715;SDS011;13573;50.936;4.328;2022-07-06T08:55:43;8.98;;;3.75;;
25715;SDS011;13573;50.936;4.328;2022-07-06T08:58:10;9.93;;;3.83;;
25715;SDS011;13573;50.936;4.328;2022-07-06T09:00:38;8.23;;;3.55;;
25715;SDS011;13573;50.936;4.328;2022-07-06T09:03:06;7.17;;;3.65;;
25715;SDS011;13573;50.936;4.328;2022-07-06T09:05:36;7.53;;;3.60;;
25715;SDS011;13573;50.936;4.328;2022-07-06T09:08:03;6.35;;;2.70;;
25715;SDS011;13573;50.936;4.328;2022-07-06T09:10:30;5.62;;;3.22;;
25715;SDS011;13573;50.936;4.328;2022-07-06T09:13:01;4.87;;;3.25;;
25715;SDS011;13573;50.936;4.328;2022-07-06T09:15:32;9.65;;;3.75;;
25715;SDS011;13573;50.936;4.328;2022-07-06T09:18:00;7.70;;;3.83;;
25715;SDS011;13573;50.936;4.328;2022-07-06T09:20:30;7.15;;;4.53;;
25715;SDS011;13573;50.936;4.328;2022-07-06T09:22:59;7.03;;;4.20;;
25715;SDS011;13573;50.936;4.328;2022-07-06T09:25:26;7.47;;;3.87;;
25715;SDS011;13573;50.936;4.328;2022-07-06T09:27:55;9.00;;;3.62;;
25715;SDS011;13573;50.936;4.328;2022-07-06T09:30:25;7.70;;;4.00;;
25715;SDS011;13573;50.936;4.328;2022-07-06T09:32:53;7.40;;;3.80;;
25715;SDS011;13573;50.936;4.328;2022-07-06T09:35:24;6.65;;;3.50;;
25715;SDS011;13573;50.936;4.328;2022-07-06T09:37:59;8.63;;;3.50;;
25715;SDS011;13573;50.936;4.328;2022-07-06T09:40:35;9.58;;;3.80;;
25715;SDS011;13573;50.936;4.328;2022-07-06T09:45:40;6.15;;;3.40;;
25715;SDS011;13573;50.936;4.328;2022-07-06T09:48:12;9.20;;;3.25;;
25715;SDS011;13573;50.936;4.328;2022-07-06T09:50:43;6.33;;;3.50;;
25715;SDS011;13573;50.936;4.328;2022-07-06T09:53:12;11.65;;;3.65;;
25715;SDS011;13573;50.936;4.328;2022-07-06T09:55:44;7.72;;;4.10;;
25715;SDS011;13573;50.936;4.328;2022-07-06T09:58:13;10.18;;;3.70;;
25715;SDS011;13573;50.936;4.328;2022-07-06T10:00:44;10.80;;;4.10;;
25715;SDS011;13573;50.936;4.328;2022-07-06T10:03:13;12.30;;;4.25;;
25715;SDS011;13573;50.936;4.328;2022-07-06T10:05:43;5.80;;;4.00;;
25715;SDS011;13573;50.936;4.328;2022-07-06T10:08:13;7.15;;;3.85;;
25715;SDS011;13573;50.936;4.328;2022-07-06T10:10:41;6.67;;;3.50;;
25715;SDS011;13573;50.936;4.328;2022-07-06T10:13:09;6.70;;;3.75;;
25715;SDS011;13573;50.936;4.328;2022-07-06T10:15:38;7.87;;;4.58;;
25715;SDS011;13573;50.936;4.328;2022-07-06T10:18:06;8.03;;;3.47;;
25715;SDS011;13573;50.936;4.328;2022-07-06T10:20:37;7.17;;;3.20;;
25715;SDS011;13573;50.936;4.328;2022-07-06T10:23:05;8.03;;;3.55;;
25715;SDS011;13573;50.936;4.328;2022-07-06T10:25:34;7.22;;;3.42;;
25715;SDS011;13573;50.936;4.328;2022-07-06T10:28:01;11.97;;;3.33;;
25715;SDS011;13573;50.936;4.328;2022-07-06T10:30:29;6.17;;;3.33;;
25715;SDS011;13573;50.936;4.328;2022-07-06T10:32:56;8.43;;;3.42;;
25715;SDS011;13573;50.936;4.328;2022-07-06T10:35:25;5.30;;;3.00;;
25715;SDS011;13573;50.936;4.328;2022-07-06T10:40:31;9.13;;;5.12;;
25715;SDS011;13573;50.936;4.328;2022-07-06T10:43:08;7.70;;;3.40;;
25715;SDS011;13573;50.936;4.328;2022-07-06T10:45:50;9.73;;;2.90;;
25715;SDS011;13573;50.936;4.328;2022-07-06T10:48:17;7.33;;;3.80;;
25715;SDS011;13573;50.936;4.328;2022-07-06T10:50:48;6.22;;;3.30;;
25715;SDS011;13573;50.936;4.328;2022-07-06T10:53:25;6.90;;;2.60;;
25715;SDS011;13573;50.936;4.328;2022-07-06T10:55:52;7.53;;;3.33;;
25715;SDS011;13573;50.936;4.328;2022-07-06T11:00:59;5.30;;;2.80;;
25715;SDS011;13573;50.936;4.328;2022-07-06T11:03:33;7.67;;;3.12;;
25715;SDS011;13573;50.936;4.328;2022-07-06T11:06:05;4.97;;;2.65;;
25715;SDS011;13573;50.936;4.328;2022-07-06T11:08:41;5.60;;;2.92;;
25715;SDS011;13573;50.936;4.328;2022-07-06T11:11:17;6.70;;;3.75;;
25715;SDS011;13573;50.936;4.328;2022-07-06T11:13:51;8.85;;;2.85;;
25715;SDS011;13573;50.936;4.328;2022-07-06T11:16:22;12.78;;;3.75;;
25715;SDS011;13573;50.936;4.328;2022-07-06T11:19:03;4.45;;;2.98;;
25715;SDS011;13573;50.936;4.328;2022-07-06T11:21:32;5.80;;;2.60;;
25715;SDS011;13573;50.936;4.328;2022-07-06T11:24:04;5.80;;;2.90;;
25715;SDS011;13573;50.936;4.328;2022-07-06T11:26:33;6.55;;;2.75;;
25715;SDS011;13573;50.936;4.328;2022-07-06T11:29:04;5.50;;;3.00;;
25715;SDS011;13573;50.936;4.328;2022-07-06T11:31:34;11.33;;;3.47;;
25715;SDS011;13573;50.936;4.328;2022-07-06T11:34:03;6.75;;;3.27;;
25715;SDS011;13573;50.936;4.328;2022-07-06T11:36:30;7.65;;;3.70;;
25715;SDS011;13573;50.936;4.328;2022-07-06T11:38:58;6.97;;;3.87;;
25715;SDS011;13573;50.936;4.328;2022-07-06T11:41:25;8.18;;;2.90;;
25715;SDS011;13573;50.936;4.328;2022-07-06T11:43:51;7.22;;;3.00;;
25715;SDS011;13573;50.936;4.328;2022-07-06T11:46:19;5.87;;;2.80;;
25715;SDS011;13573;50.936;4.328;2022-07-06T11:48:50;6.28;;;3.70;;
25715;SDS011;13573;50.936;4.328;2022-07-06T11:51:16;7.00;;;3.70;;
25715;SDS011;13573;50.936;4.328;2022-07-06T11:53:44;4.35;;;2.72;;
25715;SDS011;13573;50.936;4.328;2022-07-06T11:56:12;7.78;;;2.87;;
25715;SDS011;13573;50.936;4.328;2022-07-06T11:58:42;5.85;;;2.92;;
25715;SDS011;13573;50.936;4.328;2022-07-06T12:01:12;5.12;;;2.62;;
25715;SDS011;13573;50.936;4.328;2022-07-06T12:03:40;6.50;;;2.55;;
25715;SDS011;13573;50.936;4.328;2022-07-06T12:06:13;7.15;;;2.77;;
25715;SDS011;13573;50.936;4.328;2022-07-06T12:08:43;8.35;;;3.15;;
25715;SDS011;13573;50.936;4.328;2022-07-06T12:11:20;4.55;;;2.40;;
25715;SDS011;13573;50.936;4.328;2022-07-06T12:13:54;8.70;;;2.85;;
25715;SDS011;13573;50.936;4.328;2022-07-06T12:16:21;7.95;;;2.83;;
25715;SDS011;13573;50.936;4.328;2022-07-06T12:18:50;4.17;;;2.30;;
25715;SDS011;13573;50.936;4.328;2022-07-06T12:21:18;7.75;;;2.20;;
25715;SDS011;13573;50.936;4.328;2022-07-06T12:23:48;3.33;;;2.00;;
25715;SDS011;13573;50.936;4.328;2022-07-06T12:26:15;5.08;;;2.05;;
25715;SDS011;13573;50.936;4.328;2022-07-06T12:28:54;5.67;;;1.95;;
25715;SDS011;13573;50.936;4.328;2022-07-06T12:31:30;14.23;;;2.17;;
25715;SDS011;13573;50.936;4.328;2022-07-06T12:33:57;6.78;;;2.33;;
25715;SDS011;13573;50.936;4.328;2022-07-06T12:36:24;3.60;;;2.00;;
25715;SDS011;13573;50.936;4.328;2022-07-06T12:38:50;5.60;;;2.17;;
25715;SDS011;13573;50.936;4.328;2022-07-06T12:41:33;5.20;;;2.17;;
25715;SDS011;13573;50.936;4.328;2022-07-06T12:44:02;4.87;;;2.15;;
25715;SDS011;13573;50.936;4.328;2022-07-06T12:46:33;8.38;;;2.22;;
25715;SDS011;13573;50.936;4.328;2022-07-06T12:54:33;6.87;;;2.17;;
25715;SDS011;13573;50.936;4.328;2022-07-06T12:57:04;5.40;;;2.08;;
25715;SDS011;13573;50.936;4.328;2022-07-06T12:59:38;7.35;;;1.82;;
25715;SDS011;13573;50.936;4.328;2022-07-06T13:02:08;4.95;;;1.70;;
25715;SDS011;13573;50.936;4.328;2022-07-06T13:04:53;4.85;;;2.00;;
25715;SDS011;13573;50.936;4.328;2022-07-06T13:07:21;3.40;;;1.60;;
25715;SDS011;13573;50.936;4.328;2022-07-06T13:09:48;3.10;;;1.70;;
25715;SDS011;13573;50.936;4.328;2022-07-06T13:12:15;5.30;;;1.90;;
25715;SDS011;13573;50.936;4.328;2022-07-06T13:14:41;3.10;;;1.72;;
25715;SDS011;13573;50.936;4.328;2022-07-06T13:17:08;3.55;;;1.75;;
25715;SDS011;13573;50.936;4.328;2022-07-06T13:19:34;4.45;;;1.70;;
25715;SDS011;13573;50.936;4.328;2022-07-06T13:22:01;4.28;;;1.98;;
25715;SDS011;13573;50.936;4.328;2022-07-06T13:24:28;8.90;;;1.80;;
25715;SDS011;13573;50.936;4.328;2022-07-06T13:26:55;5.20;;;1.80;;
25715;SDS011;13573;50.936;4.328;2022-07-06T13:29:23;8.43;;;2.25;;
25715;SDS011;13573;50.936;4.328;2022-07-06T13:31:50;6.22;;;2.12;;
25715;SDS011;13573;50.936;4.328;2022-07-06T13:34:17;5.45;;;1.75;;
25715;SDS011;13573;50.936;4.328;2022-07-06T13:36:45;7.17;;;1.95;;
25715;SDS011;13573;50.936;4.328;2022-07-06T13:39:11;6.47;;;1.87;;
25715;SDS011;13573;50.936;4.328;2022-07-06T13:41:38;4.85;;;2.27;;
25715;SDS011;13573;50.936;4.328;2022-07-06T13:44:05;5.62;;;2.27;;
25715;SDS011;13573;50.936;4.328;2022-07-06T13:46:33;4.08;;;1.77;;
25715;SDS011;13573;50.936;4.328;2022-07-06T13:48:59;6.35;;;2.15;;
25715;SDS011;13573;50.936;4.328;2022-07-06T13:51:26;3.52;;;1.60;;
25715;SDS011;13573;50.936;4.328;2022-07-06T13:53:54;5.00;;;1.87;;
25715;SDS011;13573;50.936;4.328;2022-07-06T13:56:21;3.62;;;1.90;;
25715;SDS011;13573;50.936;4.328;2022-07-06T13:58:48;3.33;;;2.00;;
25715;SDS011;13573;50.936;4.328;2022-07-06T14:01:14;5.00;;;1.77;;
25715;SDS011;13573;50.936;4.328;2022-07-06T14:03:42;4.87;;;1.85;;
25715;SDS011;13573;50.936;4.328;2022-07-06T14:06:09;6.22;;;1.85;;
25715;SDS011;13573;50.936;4.328;2022-07-06T14:08:36;4.10;;;1.70;;
25715;SDS011;13573;50.936;4.328;2022-07-06T14:11:05;4.40;;;1.87;;
25715;SDS011;13573;50.936;4.328;2022-07-06T14:13:34;3.60;;;1.85;;
25715;SDS011;13573;50.936;4.328;2022-07-06T14:16:02;3.87;;;1.87;;
25715;SDS011;13573;50.936;4.328;2022-07-06T14:18:29;5.35;;;2.00;;
25715;SDS011;13573;50.936;4.328;2022-07-06T14:20:56;6.17;;;1.75;;
25715;SDS011;13573;50.936;4.328;2022-07-06T14:23:23;5.17;;;1.92;;
25715;SDS011;13573;50.936;4.328;2022-07-06T14:25:50;5.37;;;1.95;;
25715;SDS011;13573;50.936;4.328;2022-07-06T14:28:20;5.45;;;2.05;;
25715;SDS011;13573;50.936;4.328;2022-07-06T14:30:47;4.57;;;2.00;;
25715;SDS011;13573;50.936;4.328;2022-07-06T14:33:13;5.80;;;2.10;;
25715;SDS011;13573;50.936;4.328;2022-07-06T14:35:42;4.37;;;2.10;;
25715;SDS011;13573;50.936;4.328;2022-07-06T14:38:10;7.60;;;2.33;;
25715;SDS011;13573;50.936;4.328;2022-07-06T14:40:37;3.50;;;2.00;;
25715;SDS011;13573;50.936;4.328;2022-07-06T14:43:05;6.50;;;1.70;;
25715;SDS011;13573;50.936;4.328;2022-07-06T14:45:33;4.97;;;1.50;;
25715;SDS011;13573;50.936;4.328;2022-07-06T14:47:59;6.03;;;2.53;;
25715;SDS011;13573;50.936;4.328;2022-07-06T14:50:28;5.63;;;1.80;;
25715;SDS011;13573;50.936;4.328;2022-07-06T14:52:56;4.03;;;2.00;;
25715;SDS011;13573;50.936;4.328;2022-07-06T14:55:24;4.70;;;1.80;;
25715;SDS011;13573;50.936;4.328;2022-07-06T14:57:51;8.78;;;1.82;;
25715;SDS011;13573;50.936;4.328;2022-07-06T15:00:20;4.50;;;2.05;;